createdAt,value
2022-08-08T00:02:03.659Z,100790.16
2022-08-08T00:04:49.326Z,100786.59
2022-08-08T00:07:30.303Z,100788.81
2022-08-08T00:10:07.013Z,100791.03
2022-08-08T00:12:56.484Z,100791.75
2022-08-08T00:15:57.130Z,100802.50
2022-08-08T00:18:26.817Z,100793.88
2022-08-08T00:20:58.605Z,100797.66
2022-08-08T00:23:43.141Z,100798.56
2022-08-08T00:26:21.618Z,100795.47
2022-08-08T00:29:02.509Z,100794.88
2022-08-08T00:32:28.339Z,100789.59
2022-08-08T00:35:05.110Z,100795.56
2022-08-08T00:37:45.370Z,100803.91
2022-08-08T00:41:08.979Z,100800.00
2022-08-08T00:44:00.791Z,100798.34
2022-08-08T00:47:19.330Z,100798.69
2022-08-08T00:50:35.485Z,100789.59
2022-08-08T00:53:18.711Z,100795.19
2022-08-08T00:56:16.497Z,100796.16
2022-08-08T00:59:44.624Z,100789.38
2022-08-08T01:03:57.974Z,100792.16
2022-08-08T01:06:05.778Z,100782.34
2022-08-08T01:09:36.179Z,100789.56
2022-08-08T01:12:43.138Z,100792.19
2022-08-08T01:15:54.439Z,100781.72
2022-08-08T01:18:54.167Z,100783.84
2022-08-08T01:22:07.195Z,100783.03
2022-08-08T01:24:58.955Z,100784.50
2022-08-08T01:28:02.539Z,100772.94
2022-08-08T01:31:10.519Z,100780.84
2022-08-08T01:34:36.146Z,100781.25
2022-08-08T01:37:41.246Z,100772.56
2022-08-08T01:40:36.477Z,100785.47
2022-08-08T01:43:14.331Z,100782.28
2022-08-08T01:45:56.721Z,100777.63
2022-08-08T01:48:46.360Z,100781.56
2022-08-08T01:52:47.308Z,100789.03
2022-08-08T01:55:26.944Z,100787.88
2022-08-08T01:58:11.548Z,100789.03
2022-08-08T02:00:44.604Z,100791.59
2022-08-08T02:03:55.648Z,100802.25
2022-08-08T02:06:31.757Z,100790.44
2022-08-08T02:09:16.266Z,100804.16
2022-08-08T02:11:52.834Z,100802.44
2022-08-08T02:14:55.683Z,100802.03
2022-08-08T02:17:42.908Z,100803.19
2022-08-08T02:21:02.605Z,100801.94
2022-08-08T02:23:22.658Z,100809.09
2022-08-08T02:26:00.615Z,100807.69
2022-08-08T02:28:48.229Z,100807.31
2022-08-08T02:31:59.654Z,100819.25
2022-08-08T02:35:11.001Z,100814.94
2022-08-08T02:38:32.688Z,100819.03
2022-08-08T02:41:59.383Z,100818.91
2022-08-08T02:44:56.951Z,100819.03
2022-08-08T02:48:13.297Z,100815.00
2022-08-08T02:51:30.087Z,100816.09
2022-08-08T02:54:53.747Z,100818.56
2022-08-08T02:58:07.507Z,100816.44
2022-08-08T03:01:14.986Z,100813.25
2022-08-08T03:05:04.758Z,100821.59
2022-08-08T03:07:59.424Z,100816.81
2022-08-08T03:11:13.868Z,100811.66
2022-08-08T03:15:58.742Z,100820.19
2022-08-08T03:17:38.912Z,100820.38
2022-08-08T03:20:11.650Z,100825.22
2022-08-08T03:22:51.047Z,100831.03
2022-08-08T03:25:35.562Z,100821.69
2022-08-08T03:28:08.942Z,100826.78
2022-08-08T03:30:39.601Z,100832.97
2022-08-08T03:33:56.316Z,100831.22
2022-08-08T03:36:15.967Z,100832.19
2022-08-08T03:38:54.903Z,100826.00
2022-08-08T03:42:12.798Z,100825.81
2022-08-08T03:44:25.395Z,100825.16
2022-08-08T03:46:55.977Z,100827.38
2022-08-08T03:49:57.941Z,100823.38
2022-08-08T03:52:17.222Z,100824.63
2022-08-08T03:55:02.338Z,100832.56
2022-08-08T03:58:32.068Z,100835.53
2022-08-08T04:00:30.729Z,100837.25
2022-08-08T04:03:11.576Z,100843.28
2022-08-08T04:05:48.094Z,100843.41
2022-08-08T04:08:33.629Z,100840.59
2022-08-08T04:11:10.924Z,100844.56
2022-08-08T04:14:03.705Z,100839.06
2022-08-08T04:16:40.236Z,100843.50
2022-08-08T04:19:24.166Z,100843.50
2022-08-08T04:21:58.951Z,100853.22
2022-08-08T04:24:31.986Z,100855.22
2022-08-08T04:27:07.569Z,100850.19
2022-08-08T04:29:55.175Z,100855.38
2022-08-08T04:32:30.686Z,100854.50
2022-08-08T04:35:13.188Z,100863.66
2022-08-08T04:37:43.291Z,100869.66
2022-08-08T04:40:19.119Z,100860.00
2022-08-08T04:43:00.828Z,100864.06
2022-08-08T04:45:40.454Z,100863.78
2022-08-08T04:48:09.377Z,100870.16
2022-08-08T04:50:45.904Z,100874.75
2022-08-08T04:54:27.124Z,100871.53
2022-08-08T04:56:08.943Z,100872.19
2022-08-08T04:58:39.194Z,100884.13
2022-08-08T05:01:10.789Z,100881.59
2022-08-08T05:04:09.956Z,100889.06
2022-08-08T05:06:39.129Z,100888.44
2022-08-08T05:09:08.807Z,100890.31
2022-08-08T05:11:40.868Z,100887.75
2022-08-08T05:14:14.739Z,100895.69
2022-08-08T05:16:55.642Z,100893.78
2022-08-08T05:20:04.288Z,100905.59
2022-08-08T05:22:27.766Z,100901.16
2022-08-08T05:24:58.126Z,100901.84
2022-08-08T05:27:26.617Z,100903.53
2022-08-08T05:30:03.353Z,100906.84
2022-08-08T05:32:41.129Z,100909.59
2022-08-08T05:35:15.076Z,100907.25
2022-08-08T05:37:54.000Z,100912.59
2022-08-08T05:40:58.202Z,100912.03
2022-08-08T05:43:39.260Z,100916.19
2022-08-08T05:46:16.273Z,100916.91
2022-08-08T05:48:52.117Z,100918.53
2022-08-08T05:51:24.742Z,100913.38
2022-08-08T05:54:28.562Z,100922.31
2022-08-08T05:56:46.869Z,100924.81
2022-08-08T05:59:59.642Z,100921.16
2022-08-08T06:02:40.917Z,100926.25
2022-08-08T06:05:33.460Z,100922.03
2022-08-08T06:08:09.349Z,100923.75
2022-08-08T06:10:40.781Z,100936.63
2022-08-08T06:13:10.007Z,100935.47
2022-08-08T06:15:50.817Z,100931.75
2022-08-08T06:18:34.096Z,100940.84
2022-08-08T06:21:11.613Z,100935.28
2022-08-08T06:24:04.675Z,100937.88
2022-08-08T06:26:45.429Z,100943.16
2022-08-08T06:29:59.476Z,100947.41
2022-08-08T06:32:20.750Z,100947.94
2022-08-08T06:35:12.025Z,100953.41
2022-08-08T06:38:00.631Z,100953.06
2022-08-08T06:40:37.006Z,100955.44
2022-08-08T06:43:11.617Z,100953.38
2022-08-08T06:46:01.945Z,100955.28
2022-08-08T06:48:32.747Z,100959.22
2022-08-08T06:51:08.344Z,100965.03
2022-08-08T06:53:39.366Z,100960.53
2022-08-08T06:56:11.477Z,100966.06
2022-08-08T06:58:44.914Z,100969.81
2022-08-08T07:02:17.100Z,100970.50
2022-08-08T07:04:39.801Z,100972.94
2022-08-08T07:07:09.639Z,100969.34
2022-08-08T07:09:59.310Z,100968.84
2022-08-08T07:12:41.000Z,100977.72
2022-08-08T07:15:32.786Z,100972.34
2022-08-08T07:18:35.919Z,100984.19
2022-08-08T07:21:02.232Z,100981.66
2022-08-08T07:23:57.618Z,100983.19
2022-08-08T07:26:37.899Z,100978.63
2022-08-08T07:29:11.640Z,100975.16
2022-08-08T07:31:56.747Z,100980.16
2022-08-08T07:34:32.113Z,100976.50
2022-08-08T07:37:11.936Z,100985.00
2022-08-08T07:39:56.177Z,100977.56
2022-08-08T07:42:33.463Z,100984.72
2022-08-08T07:45:05.500Z,100987.91
2022-08-08T07:47:39.341Z,100980.13
2022-08-08T07:50:10.788Z,100986.50
2022-08-08T07:52:44.442Z,100989.28
2022-08-08T07:55:28.597Z,100984.47
2022-08-08T07:58:14.764Z,100988.59
2022-08-08T08:00:49.464Z,100988.22
2022-08-08T08:03:23.738Z,100984.81
2022-08-08T08:05:59.347Z,100991.56
2022-08-08T08:08:50.146Z,100992.81
2022-08-08T08:11:33.982Z,100997.22
2022-08-08T08:14:19.484Z,100993.81
2022-08-08T08:16:50.822Z,100993.66
2022-08-08T08:19:23.111Z,100991.47
2022-08-08T08:21:58.379Z,100994.06
2022-08-08T08:24:46.871Z,100991.81
2022-08-08T08:27:21.811Z,100994.78
2022-08-08T08:29:54.430Z,100993.25
2022-08-08T08:32:35.805Z,100987.63
2022-08-08T08:35:15.305Z,100997.88
2022-08-08T08:38:12.935Z,100995.34
2022-08-08T08:40:34.698Z,100992.25
2022-08-08T08:43:07.879Z,100993.69
2022-08-08T08:45:40.874Z,100989.72
2022-08-08T08:48:16.443Z,100990.16
2022-08-08T08:50:51.991Z,100992.47
2022-08-08T08:53:55.277Z,100997.66
2022-08-08T08:56:18.304Z,100996.19
2022-08-08T08:58:58.043Z,100994.97
2022-08-08T09:01:35.484Z,100994.09
2022-08-08T09:04:31.577Z,100991.78
2022-08-08T09:07:03.235Z,100989.28
2022-08-08T09:09:47.878Z,100988.22
2022-08-08T09:12:24.684Z,100982.09
2022-08-08T09:14:58.886Z,100990.50
2022-08-08T09:17:41.973Z,100988.13
2022-08-08T09:22:01.960Z,100989.50
2022-08-08T09:23:17.369Z,100982.25
2022-08-08T09:26:02.039Z,100980.59
2022-08-08T09:28:40.156Z,100985.53
2022-08-08T09:31:42.262Z,100987.09
2022-08-08T09:34:32.110Z,100983.13
2022-08-08T09:37:46.362Z,100989.06
2022-08-08T09:40:00.814Z,100983.00
2022-08-08T09:42:35.574Z,100973.81
2022-08-08T09:45:20.499Z,100966.72
2022-08-08T09:48:17.712Z,100973.97
2022-08-08T09:50:51.675Z,100965.72
2022-08-08T09:53:52.950Z,100973.28
2022-08-08T09:56:22.124Z,100970.16
2022-08-08T09:59:03.391Z,100964.84
2022-08-08T10:01:59.186Z,100969.38
2022-08-08T10:04:41.310Z,100964.25
2022-08-08T10:07:13.960Z,100959.81
2022-08-08T10:09:58.681Z,100957.94
2022-08-08T10:12:52.536Z,100949.84
2022-08-08T10:15:24.174Z,100945.94
2022-08-08T10:18:05.312Z,100942.75
2022-08-08T10:20:51.072Z,100950.19
2022-08-08T10:23:44.256Z,100940.28
2022-08-08T10:26:30.850Z,100940.50
2022-08-08T10:29:11.299Z,100945.00
2022-08-08T10:31:58.250Z,100945.03
2022-08-08T10:34:28.725Z,100940.38
2022-08-08T10:37:00.222Z,100924.31
2022-08-08T10:39:31.542Z,100931.19
2022-08-08T10:42:16.279Z,100924.63
2022-08-08T10:44:45.778Z,100927.22
2022-08-08T10:47:15.780Z,100926.53
2022-08-08T10:50:02.023Z,100921.72
2022-08-08T10:52:33.771Z,100930.50
2022-08-08T10:55:06.961Z,100924.56
2022-08-08T10:57:45.230Z,100923.66
2022-08-08T11:00:23.251Z,100923.41
2022-08-08T11:02:53.991Z,100921.47
2022-08-08T11:05:23.064Z,100923.22
2022-08-08T11:08:37.193Z,100922.03
2022-08-08T11:10:42.175Z,100915.47
2022-08-08T11:13:30.009Z,100912.22
2022-08-08T11:16:01.181Z,100908.22
2022-08-08T11:18:36.658Z,100914.16
2022-08-08T11:21:09.134Z,100905.75
2022-08-08T11:23:43.496Z,100903.38
2022-08-08T11:26:19.228Z,100898.06
2022-08-08T11:28:50.265Z,100906.88
2022-08-08T11:31:18.423Z,100904.91
2022-08-08T11:34:02.930Z,100892.31
2022-08-08T11:36:32.694Z,100895.59
2022-08-08T11:39:12.713Z,100898.88
2022-08-08T11:41:45.126Z,100892.78
2022-08-08T11:44:15.846Z,100888.22
2022-08-08T11:46:45.372Z,100885.66
2022-08-08T11:49:22.864Z,100885.78
2022-08-08T11:51:52.550Z,100889.13
2022-08-08T11:54:38.329Z,100888.41
2022-08-08T11:57:21.875Z,100875.94
2022-08-08T12:00:01.279Z,100881.50
2022-08-08T12:02:48.360Z,100877.91
2022-08-08T12:05:22.843Z,100885.59
2022-08-08T12:07:56.007Z,100870.31
2022-08-08T12:10:30.174Z,100868.28
2022-08-08T12:13:05.053Z,100868.56
2022-08-08T12:15:42.515Z,100862.69
2022-08-08T12:18:21.366Z,100858.97
2022-08-08T12:20:50.944Z,100859.72
2022-08-08T12:23:43.100Z,100856.84
2022-08-08T12:26:28.485Z,100855.47
2022-08-08T12:29:04.780Z,100851.28
2022-08-08T12:31:39.371Z,100848.91
2022-08-08T12:34:37.722Z,100849.59
2022-08-08T12:37:08.451Z,100848.25
2022-08-08T12:39:59.913Z,100852.13
2022-08-08T12:42:32.929Z,100844.59
2022-08-08T12:45:59.197Z,100842.78
2022-08-08T12:48:09.590Z,100835.91
2022-08-08T12:50:49.056Z,100834.72
2022-08-08T12:53:30.223Z,100833.69
2022-08-08T12:56:17.428Z,100838.34
2022-08-08T12:58:54.250Z,100836.94
2022-08-08T13:01:36.322Z,100833.66
2022-08-08T13:04:19.161Z,100832.66
2022-08-08T13:07:03.166Z,100832.44
2022-08-08T13:10:01.993Z,100828.78
2022-08-08T13:12:29.465Z,100829.31
2022-08-08T13:15:03.097Z,100828.72
2022-08-08T13:18:07.652Z,100823.91
2022-08-08T13:20:22.030Z,100828.66
2022-08-08T13:22:51.555Z,100828.84
2022-08-08T13:25:27.439Z,100827.72
2022-08-08T13:28:00.705Z,100832.63
2022-08-08T13:30:31.083Z,100821.94
2022-08-08T13:33:01.400Z,100823.88
2022-08-08T13:35:38.980Z,100812.22
2022-08-08T13:38:13.469Z,100813.00
2022-08-08T13:40:45.060Z,100814.56
2022-08-08T13:43:16.008Z,100819.41
2022-08-08T13:45:47.633Z,100812.91
2022-08-08T13:48:17.456Z,100813.53
2022-08-08T13:50:57.736Z,100813.06
2022-08-08T13:53:53.317Z,100814.59
2022-08-08T13:56:41.633Z,100812.50
2022-08-08T13:59:32.879Z,100804.88
2022-08-08T14:02:07.503Z,100815.47
2022-08-08T14:04:38.574Z,100805.28
2022-08-08T14:07:21.843Z,100804.16
2022-08-08T14:10:04.683Z,100800.97
2022-08-08T14:12:39.897Z,100806.03
2022-08-08T14:15:24.259Z,100805.94
2022-08-08T14:18:35.789Z,100797.19
2022-08-08T14:21:03.014Z,100801.34
2022-08-08T14:24:06.430Z,100797.84
2022-08-08T14:26:33.193Z,100796.16
2022-08-08T14:29:06.100Z,100794.53
2022-08-08T14:32:10.902Z,100796.09
2022-08-08T14:34:39.194Z,100785.34
2022-08-08T14:37:12.706Z,100787.69
2022-08-08T14:39:53.694Z,100775.34
2022-08-08T14:42:35.848Z,100785.56
2022-08-08T14:45:09.839Z,100776.09
2022-08-08T14:47:51.408Z,100768.28
2022-08-08T14:50:39.338Z,100773.75
2022-08-08T14:53:13.391Z,100775.78
2022-08-08T14:55:43.660Z,100772.53
2022-08-08T14:58:16.812Z,100777.28
2022-08-08T15:00:50.186Z,100775.75
2022-08-08T15:03:18.630Z,100771.50
2022-08-08T15:05:53.194Z,100763.13
2022-08-08T15:08:35.592Z,100763.97
2022-08-08T15:11:09.119Z,100767.28
2022-08-08T15:13:40.556Z,100763.63
2022-08-08T15:16:28.055Z,100767.56
2022-08-08T15:18:56.386Z,100775.63
2022-08-08T15:21:30.199Z,100772.66
2022-08-08T15:23:58.453Z,100766.72
2022-08-08T15:26:29.242Z,100767.00
2022-08-08T15:28:58.072Z,100763.38
2022-08-08T15:32:02.896Z,100760.31
2022-08-08T15:34:29.896Z,100769.28
2022-08-08T15:37:04.833Z,100775.22
2022-08-08T15:39:37.922Z,100768.28
2022-08-08T15:42:13.054Z,100768.56
2022-08-08T15:44:45.994Z,100766.44
2022-08-08T15:47:15.739Z,100765.09
2022-08-08T15:49:48.567Z,100761.22
2022-08-08T15:52:20.735Z,100772.47
2022-08-08T15:54:51.582Z,100764.31
2022-08-08T15:57:21.111Z,100750.53
2022-08-08T16:00:05.501Z,100758.88
2022-08-08T16:02:44.241Z,100756.28
2022-08-08T16:05:20.511Z,100757.59
2022-08-08T16:07:52.926Z,100755.97
2022-08-08T16:13:11.973Z,100751.88
2022-08-08T16:13:32.308Z,100752.38
2022-08-08T16:16:13.286Z,100749.81
2022-08-08T16:18:56.641Z,100749.91
2022-08-08T16:21:29.504Z,100753.19
2022-08-08T16:24:00.585Z,100751.59
2022-08-08T16:26:33.942Z,100744.44
2022-08-08T16:29:09.063Z,100744.78
2022-08-08T16:31:40.774Z,100748.00
2022-08-08T16:34:09.706Z,100748.97
2022-08-08T16:36:38.393Z,100752.16
2022-08-08T16:39:16.856Z,100745.38
2022-08-08T16:42:01.266Z,100755.03
2022-08-08T16:44:33.872Z,100751.19
2022-08-08T16:47:21.601Z,100752.56
2022-08-08T16:49:59.624Z,100745.72
2022-08-08T16:55:23.723Z,100752.69
2022-08-08T16:55:42.413Z,100744.22
2022-08-08T16:58:13.967Z,100740.63
2022-08-08T17:00:48.874Z,100743.72
2022-08-08T17:03:24.938Z,100743.81
2022-08-08T17:06:03.041Z,100745.22
2022-08-08T17:08:31.823Z,100747.28
2022-08-08T17:11:10.317Z,100743.56
2022-08-08T17:13:41.441Z,100736.56
2022-08-08T17:16:22.017Z,100734.16
2022-08-08T17:18:52.688Z,100737.66
2022-08-08T17:21:21.578Z,100740.16
2022-08-08T17:23:58.016Z,100750.75
2022-08-08T17:26:32.342Z,100748.50
2022-08-08T17:29:03.973Z,100747.34
2022-08-08T17:31:44.419Z,100759.53
2022-08-08T17:34:53.029Z,100759.94
2022-08-08T17:37:06.804Z,100756.16
2022-08-08T17:40:03.572Z,100751.25
2022-08-08T17:42:27.596Z,100767.00
2022-08-08T17:44:58.570Z,100767.69
2022-08-08T17:47:28.114Z,100769.38
2022-08-08T17:50:07.891Z,100774.56
2022-08-08T17:52:38.307Z,100770.72
2022-08-08T17:56:05.613Z,100768.06
2022-08-08T17:58:02.301Z,100766.72
2022-08-08T18:00:31.488Z,100766.88
2022-08-08T18:03:08.957Z,100765.56
2022-08-08T18:05:48.065Z,100768.22
2022-08-08T18:08:24.901Z,100767.88
2022-08-08T18:11:14.677Z,100777.06
2022-08-08T18:13:47.267Z,100782.91
2022-08-08T18:16:20.160Z,100787.41
2022-08-08T18:18:54.051Z,100789.09
2022-08-08T18:22:00.020Z,100787.88
2022-08-08T18:24:19.028Z,100791.38
2022-08-08T18:26:53.873Z,100785.97
2022-08-08T18:29:29.532Z,100791.84
2022-08-08T18:32:03.624Z,100792.78
2022-08-08T18:34:33.966Z,100792.09
2022-08-08T18:37:08.175Z,100798.00
2022-08-08T18:39:38.523Z,100793.53
2022-08-08T18:42:14.345Z,100805.84
2022-08-08T18:44:54.814Z,100807.13
2022-08-08T18:47:25.364Z,100814.06
2022-08-08T18:49:58.669Z,100815.13
2022-08-08T18:52:34.675Z,100813.13
2022-08-08T18:55:10.123Z,100812.22
2022-08-08T18:57:45.144Z,100824.94
2022-08-08T19:00:20.270Z,100822.75
2022-08-08T19:03:04.234Z,100835.91
2022-08-08T19:05:45.556Z,100836.81
2022-08-08T19:08:24.074Z,100836.13
2022-08-08T19:10:55.387Z,100839.03
2022-08-08T19:13:53.780Z,100843.59
2022-08-08T19:16:18.397Z,100844.81
2022-08-08T19:18:53.367Z,100847.94
2022-08-08T19:21:30.495Z,100847.31
2022-08-08T19:24:05.280Z,100852.66
2022-08-08T19:26:35.186Z,100849.28
2022-08-08T19:29:03.459Z,100851.50
2022-08-08T19:31:36.054Z,100854.34
2022-08-08T19:34:35.715Z,100858.25
2022-08-08T19:36:58.666Z,100867.09
2022-08-08T19:39:34.691Z,100867.00
2022-08-08T19:42:06.627Z,100875.44
2022-08-08T19:44:45.965Z,100870.03
2022-08-08T19:47:23.455Z,100870.44
2022-08-08T19:49:59.880Z,100877.78
2022-08-08T19:52:35.156Z,100881.91
2022-08-08T19:55:09.400Z,100886.69
2022-08-08T19:57:41.076Z,100891.84
2022-08-08T20:00:29.165Z,100887.47
2022-08-08T20:03:01.969Z,100899.41
2022-08-08T20:06:15.656Z,100902.22
2022-08-08T20:08:32.361Z,100898.47
2022-08-08T20:11:01.486Z,100895.16
2022-08-08T20:14:13.173Z,100898.78
2022-08-08T20:16:18.976Z,100900.69
2022-08-08T20:18:53.085Z,100899.88
2022-08-08T20:21:25.755Z,100895.53
2022-08-08T20:23:58.230Z,100900.72
2022-08-08T20:26:33.603Z,100903.50
2022-08-08T20:29:03.243Z,100905.94
2022-08-08T20:32:07.389Z,100910.50
2022-08-08T20:34:29.277Z,100910.25
2022-08-08T20:36:58.960Z,100906.34
2022-08-08T20:39:39.720Z,100913.06
2022-08-08T20:42:15.439Z,100913.50
2022-08-08T20:44:43.707Z,100908.59
2022-08-08T20:47:23.042Z,100919.66
2022-08-08T20:49:57.833Z,100911.09
2022-08-08T20:52:29.023Z,100917.44
2022-08-08T20:54:58.485Z,100921.19
2022-08-08T20:57:27.925Z,100926.91
2022-08-08T20:59:56.661Z,100929.59
2022-08-08T21:02:26.642Z,100924.28
2022-08-08T21:05:00.832Z,100928.75
2022-08-08T21:07:47.150Z,100919.66
2022-08-08T21:10:21.067Z,100930.03
2022-08-08T21:12:52.862Z,100930.38
2022-08-08T21:16:05.063Z,100932.94
2022-08-08T21:18:11.802Z,100927.16
2022-08-08T21:20:42.314Z,100930.34
2022-08-08T21:23:13.045Z,100933.34
2022-08-08T21:25:43.755Z,100934.56
2022-08-08T21:28:16.351Z,100933.44
2022-08-08T21:30:52.366Z,100934.50
2022-08-08T21:33:21.636Z,100939.06
2022-08-08T21:36:14.975Z,100929.38
2022-08-08T21:38:39.449Z,100932.28
2022-08-08T21:41:07.973Z,100939.38
2022-08-08T21:43:36.314Z,100934.50
2022-08-08T21:48:05.276Z,100926.22
2022-08-08T21:48:55.782Z,100929.19
2022-08-08T21:54:18.378Z,100924.25
2022-08-08T21:54:54.231Z,100924.03
2022-08-08T21:57:08.307Z,100925.25
2022-08-08T22:00:02.223Z,100920.53
2022-08-08T22:02:25.761Z,100926.88
2022-08-08T22:04:58.714Z,100936.03
2022-08-08T22:07:39.671Z,100933.31
2022-08-08T22:10:09.973Z,100940.50
2022-08-08T22:12:47.057Z,100940.31
2022-08-08T22:15:15.105Z,100942.22
2022-08-08T22:17:45.750Z,100938.81
2022-08-08T22:20:18.760Z,100940.25
2022-08-08T22:22:52.823Z,100936.81
2022-08-08T22:25:25.331Z,100946.31
2022-08-08T22:28:03.958Z,100940.44
2022-08-08T22:30:50.983Z,100941.81
2022-08-08T22:34:05.066Z,100940.91
2022-08-08T22:36:12.288Z,100936.50
2022-08-08T22:38:48.885Z,100947.06
2022-08-08T22:41:21.727Z,100946.13
2022-08-08T22:44:05.487Z,100939.16
2022-08-08T22:46:34.444Z,100944.22
2022-08-08T22:49:09.066Z,100949.25
2022-08-08T22:51:42.903Z,100942.06
2022-08-08T22:54:32.833Z,100948.09
2022-08-08T22:57:08.657Z,100953.22
2022-08-08T22:59:52.780Z,100950.84
2022-08-08T23:02:28.721Z,100959.59
2022-08-08T23:04:57.800Z,100951.75
2022-08-08T23:07:52.179Z,100955.09
2022-08-08T23:10:21.151Z,100956.81
2022-08-08T23:12:51.576Z,100959.09
2022-08-08T23:16:41.959Z,100950.72
2022-08-08T23:18:11.892Z,100957.69
2022-08-08T23:20:40.646Z,100958.34
2022-08-08T23:23:09.047Z,100964.81
2022-08-08T23:25:47.830Z,100966.91
2022-08-08T23:28:18.953Z,100963.09
2022-08-08T23:30:48.666Z,100965.41
2022-08-08T23:33:20.971Z,100956.06
2022-08-08T23:36:08.879Z,100967.13
2022-08-08T23:38:43.934Z,100968.22
2022-08-08T23:41:24.440Z,100958.22
2022-08-08T23:43:54.207Z,100967.13
2022-08-08T23:49:06.575Z,100961.09
2022-08-08T23:49:18.417Z,100965.31
2022-08-08T23:52:04.363Z,100961.25
2022-08-08T23:54:41.759Z,100966.91
2022-08-08T23:57:27.736Z,100964.22
